Time;durP1;ratioP1;P1;durP2;ratioP2;P2;SDS_P1;SDS_P2;PMS_P1;PMS_P2;Temp;Humidity;BMP_temperature;BMP_pressure;BME280_temperature;BME280_humidity;BME280_pressure;Samples;Min_cycle;Max_cycle;Signal;HPM_P1;HPM_P2
2023/02/17 00:01:58;0.00;0.00;0.62;0.00;0.00;0.62;2.73;1.87;;;23.10;22.90;;;;;;2263913;61;20400;-65
2023/02/17 00:04:44;0.00;0.00;0.62;0.00;0.00;0.62;3.50;2.40;;;23.10;22.90;;;;;;2263544;61;20389;-71
2023/02/17 00:07:30;0.00;0.00;0.62;0.00;0.00;0.62;2.20;1.90;;;23.10;22.90;;;;;;2260568;61;20364;-67
2023/02/17 00:10:15;0.00;0.00;0.62;0.00;0.00;0.62;1.70;1.57;;;23.10;23.00;;;;;;2263585;61;20371;-66
2023/02/17 00:13:00;0.00;0.00;0.62;0.00;0.00;0.62;1.90;1.70;;;23.10;23.00;;;;;;2264293;61;20383;-69
2023/02/17 00:15:44;0.00;0.00;0.62;0.00;0.00;0.62;2.37;1.87;;;23.10;23.00;;;;;;2264385;61;20782;-67
2023/02/17 00:18:29;0.00;0.00;0.62;0.00;0.00;0.62;2.67;2.20;;;23.10;23.00;;;;;;2263467;61;20387;-66
2023/02/17 00:21:18;0.00;0.00;0.62;0.00;0.00;0.62;1.90;1.50;;;23.10;23.50;;;;;;2263713;61;20962;-66
2023/02/17 00:24:04;0.00;0.00;0.62;0.00;0.00;0.62;2.57;1.90;;;23.10;23.00;;;;;;2263850;61;20407;-67
2023/02/17 00:26:49;0.00;0.00;0.62;0.00;0.00;0.62;2.93;2.23;;;23.10;23.00;;;;;;2263932;61;20383;-66
2023/02/17 00:29:34;0.00;0.00;0.62;0.00;0.00;0.62;2.33;2.10;;;23.10;23.00;;;;;;2260404;61;20368;-66
2023/02/17 00:32:19;0.00;0.00;0.62;0.00;0.00;0.62;2.20;1.80;;;23.10;23.00;;;;;;2263720;61;20383;-66
2023/02/17 00:35:04;0.00;0.00;0.62;0.00;0.00;0.62;2.30;1.93;;;23.10;23.00;;;;;;2264128;61;20939;-66
2023/02/17 00:37:51;0.00;0.00;0.62;0.00;0.00;0.62;2.57;1.97;;;23.00;22.90;;;;;;2264087;61;20360;-65
2023/02/17 00:40:35;0.00;0.00;0.62;0.00;0.00;0.62;2.30;2.10;;;23.10;23.00;;;;;;2259543;61;20372;-65
2023/02/17 00:43:20;0.00;0.00;0.62;0.00;0.00;0.62;2.67;1.97;;;23.00;23.00;;;;;;2260862;61;20430;-67
2023/02/17 00:46:05;0.00;0.00;0.62;0.00;0.00;0.62;2.50;1.80;;;23.00;23.00;;;;;;2260398;61;20430;-69
2023/02/17 00:48:50;0.00;0.00;0.62;0.00;0.00;0.62;2.33;1.93;;;23.10;23.00;;;;;;2260439;61;20379;-68
2023/02/17 00:51:35;0.00;0.00;0.62;0.00;0.00;0.62;1.93;1.57;;;23.00;23.00;;;;;;2263988;61;20857;-66
2023/02/17 00:54:23;0.00;0.00;0.62;0.00;0.00;0.62;1.90;1.60;;;23.00;23.00;;;;;;2260393;61;20841;-66
2023/02/17 00:57:11;0.00;0.00;0.62;0.00;0.00;0.62;2.10;1.87;;;23.00;23.00;;;;;;2264040;61;20421;-65
2023/02/17 00:59:56;0.00;0.00;0.62;0.00;0.00;0.62;2.30;1.87;;;23.00;23.00;;;;;;2263572;61;20414;-66
2023/02/17 01:02:41;0.00;0.00;0.62;0.00;0.00;0.62;2.10;1.70;;;23.00;23.00;;;;;;2263387;61;20383;-65
2023/02/17 01:05:25;0.00;0.00;0.62;0.00;0.00;0.62;2.30;1.97;;;23.00;23.00;;;;;;2260763;61;20944;-65
2023/02/17 01:08:11;0.00;0.00;0.62;0.00;0.00;0.62;1.87;1.67;;;23.00;23.00;;;;;;2263598;61;20396;-66
2023/02/17 01:10:57;0.00;0.00;0.62;0.00;0.00;0.62;2.30;2.10;;;23.00;23.60;;;;;;2260094;61;20762;-66
2023/02/17 01:13:24;0.00;0.00;0.62;0.00;0.00;0.62;2.43;2.00;;;23.00;23.00;;;;;;2263612;61;20795;-66
2023/02/17 01:16:17;0.00;0.00;0.62;0.00;0.00;0.62;3.23;2.30;;;23.00;23.00;;;;;;2264039;61;20444;-69
2023/02/17 01:19:06;0.00;0.00;0.62;0.00;0.00;0.62;2.27;1.80;;;23.00;23.00;;;;;;2263423;61;20798;-67
2023/02/17 01:21:51;0.00;0.00;0.62;0.00;0.00;0.62;1.90;1.40;;;23.00;23.00;;;;;;2260741;61;20391;-64
2023/02/17 01:24:35;0.00;0.00;0.62;0.00;0.00;0.62;2.30;1.80;;;23.00;23.00;;;;;;2260347;61;20442;-66
2023/02/17 01:27:22;0.00;0.00;0.62;0.00;0.00;0.62;2.70;2.23;;;23.00;23.00;;;;;;2263747;61;20388;-66
2023/02/17 01:30:08;0.00;0.00;0.62;0.00;0.00;0.62;2.17;1.70;;;23.00;23.00;;;;;;2264830;61;20833;-66
2023/02/17 01:32:53;0.00;0.00;0.62;0.00;0.00;0.62;1.90;1.43;;;23.00;23.00;;;;;;2264178;61;20932;-65
2023/02/17 01:35:41;0.00;0.00;0.62;0.00;0.00;0.62;2.60;1.90;;;23.00;23.00;;;;;;2264353;61;20364;-66
2023/02/17 01:38:26;0.00;0.00;0.62;0.00;0.00;0.62;2.00;1.67;;;23.00;23.60;;;;;;2261394;61;20371;-65
2023/02/17 01:41:11;0.00;0.00;0.62;0.00;0.00;0.62;2.33;1.93;;;23.00;23.00;;;;;;2263781;61;20370;-66
2023/02/17 01:44:09;0.00;0.00;0.62;0.00;0.00;0.62;2.17;1.70;;;23.00;23.00;;;;;;2261147;61;20372;-65
2023/02/17 01:46:55;0.00;0.00;0.62;0.00;0.00;0.62;2.33;1.70;;;23.00;23.00;;;;;;2260819;61;20368;-65
2023/02/17 01:49:40;0.00;0.00;0.62;0.00;0.00;0.62;2.20;1.83;;;23.00;23.10;;;;;;2261094;61;20892;-66
2023/02/17 01:52:26;0.00;0.00;0.62;0.00;0.00;0.62;2.33;1.50;;;23.00;23.00;;;;;;2265026;61;20438;-65
2023/02/17 01:55:16;0.00;0.00;0.62;0.00;0.00;0.62;2.20;1.70;;;23.00;23.10;;;;;;2260974;61;20387;-66
2023/02/17 01:58:03;0.00;0.00;0.62;0.00;0.00;0.62;2.00;1.60;;;23.00;23.10;;;;;;2261113;61;20456;-66
2023/02/17 02:00:57;0.00;0.00;0.62;0.00;0.00;0.62;2.00;1.60;;;23.00;23.10;;;;;;2260859;61;20384;-65
2023/02/17 02:03:43;0.00;0.00;0.62;0.00;0.00;0.62;2.50;1.80;;;23.00;23.10;;;;;;2261051;61;20380;-66
2023/02/17 02:06:29;0.00;0.00;0.62;0.00;0.00;0.62;1.90;1.63;;;22.90;23.00;;;;;;2261223;61;20415;-66
2023/02/17 02:09:21;0.00;0.00;0.62;0.00;0.00;0.62;2.30;1.47;;;22.90;23.00;;;;;;2260097;61;20442;-67
2023/02/17 02:12:18;0.00;0.00;0.62;0.00;0.00;0.62;2.27;1.80;;;23.00;23.10;;;;;;2264513;61;20391;-67
2023/02/17 02:15:07;0.00;0.00;0.62;0.00;0.00;0.62;2.10;1.70;;;22.90;23.00;;;;;;2261075;61;20372;-66
2023/02/17 02:18:15;0.00;0.00;0.62;0.00;0.00;0.62;2.37;1.77;;;23.00;23.10;;;;;;2264558;61;20448;-64
2023/02/17 02:21:47;0.00;0.00;0.62;0.00;0.00;0.62;1.90;1.70;;;22.90;23.00;;;;;;2263847;61;20411;-66
2023/02/17 02:24:49;0.00;0.00;0.62;0.00;0.00;0.62;2.17;1.47;;;22.90;23.10;;;;;;2260869;61;20387;-66
2023/02/17 02:27:58;0.00;0.00;0.62;0.00;0.00;0.62;2.07;1.57;;;22.90;23.10;;;;;;2260993;61;20387;-66
2023/02/17 02:31:09;0.00;0.00;0.62;0.00;0.00;0.62;1.97;1.77;;;22.90;23.10;;;;;;2264103;61;20368;-66
2023/02/17 02:33:59;0.00;0.00;0.62;0.00;0.00;0.62;2.10;1.70;;;22.90;23.10;;;;;;2264280;61;20787;-70
2023/02/17 02:36:49;0.00;0.00;0.62;0.00;0.00;0.62;2.23;1.40;;;22.90;23.10;;;;;;2261260;61;20426;-65
2023/02/17 02:39:39;0.00;0.00;0.62;0.00;0.00;0.62;2.10;1.43;;;22.90;23.10;;;;;;2260450;61;20411;-68
2023/02/17 02:42:26;0.00;0.00;0.62;0.00;0.00;0.62;1.80;1.50;;;22.90;23.10;;;;;;2260971;61;20392;-66
2023/02/17 02:45:12;0.00;0.00;0.62;0.00;0.00;0.62;2.17;1.50;;;22.90;23.10;;;;;;2264226;61;20383;-65
2023/02/17 02:47:58;0.00;0.00;0.62;0.00;0.00;0.62;2.07;1.60;;;22.90;23.10;;;;;;2261153;61;20364;-65
2023/02/17 02:51:15;0.00;0.00;0.62;0.00;0.00;0.62;1.80;1.60;;;22.90;23.10;;;;;;2260882;61;20464;-65
2023/02/17 02:54:23;0.00;0.00;0.62;0.00;0.00;0.62;2.00;1.70;;;22.90;23.10;;;;;;2264041;61;20426;-67
2023/02/17 02:57:28;0.00;0.00;0.62;0.00;0.00;0.62;2.63;1.73;;;22.90;23.10;;;;;;2260619;61;20849;-66
2023/02/17 03:00:22;0.00;0.00;0.62;0.00;0.00;0.62;2.00;1.53;;;22.90;23.20;;;;;;2260752;61;20892;-65
2023/02/17 03:03:14;0.00;0.00;0.62;0.00;0.00;0.62;1.63;1.30;;;22.90;23.10;;;;;;2261285;61;20380;-66
2023/02/17 03:06:09;0.00;0.00;0.62;0.00;0.00;0.62;2.10;1.33;;;22.90;23.20;;;;;;2258466;61;20432;-64
2023/02/17 03:09:01;0.00;0.00;0.62;0.00;0.00;0.62;1.90;1.33;;;22.90;23.20;;;;;;2263480;61;20368;-66
2023/02/17 03:11:48;0.00;0.00;0.62;0.00;0.00;0.62;1.83;1.40;;;22.90;23.20;;;;;;2260769;61;20384;-66
2023/02/17 03:14:37;0.00;0.00;0.62;0.00;0.00;0.62;1.90;1.47;;;22.90;23.20;;;;;;2261015;61;20405;-66
2023/02/17 03:17:22;0.00;0.00;0.62;0.00;0.00;0.62;2.00;1.40;;;22.90;23.20;;;;;;2263985;61;20391;-67
2023/02/17 03:20:09;0.00;0.00;0.62;0.00;0.00;0.62;1.80;1.30;;;22.90;23.20;;;;;;2260133;61;20427;-68
2023/02/17 03:22:56;0.00;0.00;0.62;0.00;0.00;0.62;1.90;1.50;;;22.90;23.20;;;;;;2260718;61;20534;-66
2023/02/17 03:25:43;0.00;0.00;0.62;0.00;0.00;0.62;2.07;1.60;;;22.90;23.20;;;;;;2260559;61;20384;-66
2023/02/17 03:28:28;0.00;0.00;0.62;0.00;0.00;0.62;2.17;1.67;;;22.90;23.20;;;;;;2264563;61;20359;-65
2023/02/17 03:31:15;0.00;0.00;0.62;0.00;0.00;0.62;1.70;1.50;;;22.90;23.20;;;;;;2260677;61;20904;-67
2023/02/17 03:34:01;0.00;0.00;0.62;0.00;0.00;0.62;1.70;1.40;;;22.90;23.20;;;;;;2264157;61;20372;-65
2023/02/17 03:36:46;0.00;0.00;0.62;0.00;0.00;0.62;1.80;1.50;;;22.90;23.20;;;;;;2264434;61;20376;-66
2023/02/17 03:39:32;0.00;0.00;0.62;0.00;0.00;0.62;2.07;1.87;;;22.90;23.20;;;;;;2263589;61;20772;-66
2023/02/17 03:42:17;0.00;0.00;0.62;0.00;0.00;0.62;1.43;1.10;;;22.90;23.30;;;;;;2264203;61;20435;-66
2023/02/17 03:45:01;0.00;0.00;0.62;0.00;0.00;0.62;2.00;1.53;;;22.90;23.20;;;;;;2263928;61;20408;-65
2023/02/17 03:47:46;0.00;0.00;0.62;0.00;0.00;0.62;1.70;1.20;;;22.90;23.20;;;;;;2264301;61;20450;-67
2023/02/17 03:50:31;0.00;0.00;0.62;0.00;0.00;0.62;1.60;1.33;;;22.90;23.20;;;;;;2264052;61;20930;-66
2023/02/17 03:53:16;0.00;0.00;0.62;0.00;0.00;0.62;1.70;1.27;;;22.90;23.20;;;;;;2263652;61;20379;-64
2023/02/17 03:56:02;0.00;0.00;0.62;0.00;0.00;0.62;1.83;1.20;;;22.90;23.30;;;;;;2260894;61;20409;-65
2023/02/17 03:58:47;0.00;0.00;0.62;0.00;0.00;0.62;1.93;1.70;;;22.90;23.20;;;;;;2264167;61;20368;-67
2023/02/17 04:01:32;0.00;0.00;0.62;0.00;0.00;0.62;1.60;1.30;;;22.90;23.20;;;;;;2263951;61;20388;-66
2023/02/17 04:04:17;0.00;0.00;0.62;0.00;0.00;0.62;1.60;1.20;;;22.90;23.20;;;;;;2263834;61;20794;-65
2023/02/17 04:07:02;0.00;0.00;0.62;0.00;0.00;0.62;1.83;1.37;;;22.90;23.20;;;;;;2260865;61;20360;-66
2023/02/17 04:09:47;0.00;0.00;0.62;0.00;0.00;0.62;1.70;1.30;;;22.90;23.30;;;;;;2263462;61;20410;-66
2023/02/17 04:12:33;0.00;0.00;0.62;0.00;0.00;0.62;2.10;1.53;;;22.90;23.20;;;;;;2261061;61;20400;-65
2023/02/17 04:15:18;0.00;0.00;0.62;0.00;0.00;0.62;2.10;1.63;;;22.90;23.30;;;;;;2260374;61;20488;-66
2023/02/17 04:18:03;0.00;0.00;0.62;0.00;0.00;0.62;1.60;1.30;;;22.90;23.30;;;;;;2260973;61;20382;-66
2023/02/17 04:20:49;0.00;0.00;0.62;0.00;0.00;0.62;2.07;1.50;;;22.90;23.30;;;;;;2263636;61;20380;-68
2023/02/17 04:23:35;0.00;0.00;0.62;0.00;0.00;0.62;1.90;1.60;;;22.90;23.30;;;;;;2263802;61;20384;-67
2023/02/17 04:26:20;0.00;0.00;0.62;0.00;0.00;0.62;1.70;1.40;;;22.90;23.30;;;;;;2263649;61;20379;-66
2023/02/17 04:29:06;0.00;0.00;0.62;0.00;0.00;0.62;1.60;1.27;;;22.90;23.30;;;;;;2263706;61;20852;-65
2023/02/17 04:31:51;0.00;0.00;0.62;0.00;0.00;0.62;1.90;1.50;;;22.90;23.30;;;;;;2264023;61;20388;-66
2023/02/17 04:34:36;0.00;0.00;0.62;0.00;0.00;0.62;2.00;1.60;;;22.90;23.30;;;;;;2264049;61;20582;-66
2023/02/17 04:37:20;0.00;0.00;0.62;0.00;0.00;0.62;1.50;1.03;;;22.90;23.30;;;;;;2263418;61;20364;-66
2023/02/17 04:40:09;0.00;0.00;0.62;0.00;0.00;0.62;1.90;1.37;;;22.90;23.30;;;;;;2263648;61;20445;-66
2023/02/17 04:42:54;0.00;0.00;0.62;0.00;0.00;0.62;1.50;1.13;;;22.90;23.30;;;;;;2263505;61;20385;-67
2023/02/17 04:45:39;0.00;0.00;0.62;0.00;0.00;0.62;1.70;1.30;;;22.90;23.30;;;;;;2263517;61;20433;-71
2023/02/17 04:48:25;0.00;0.00;0.62;0.00;0.00;0.62;1.60;1.10;;;22.90;23.30;;;;;;2263741;61;20403;-67
2023/02/17 04:51:13;0.00;0.00;0.62;0.00;0.00;0.62;1.67;1.40;;;22.90;23.30;;;;;;2263489;61;20438;-67
2023/02/17 04:53:58;0.00;0.00;0.62;0.00;0.00;0.62;1.60;1.20;;;22.90;23.30;;;;;;2263732;61;20368;-66
2023/02/17 04:56:44;0.00;0.00;0.62;0.00;0.00;0.62;1.70;1.20;;;22.90;23.30;;;;;;2264024;61;20418;-68
2023/02/17 04:59:29;0.00;0.00;0.62;0.00;0.00;0.62;1.70;1.30;;;22.90;23.30;;;;;;2262764;61;20368;-67
2023/02/17 05:02:15;0.00;0.00;0.62;0.00;0.00;0.62;1.50;1.20;;;22.90;23.30;;;;;;2263573;61;20383;-68
2023/02/17 05:05:00;0.00;0.00;0.62;0.00;0.00;0.62;1.47;1.00;;;22.90;23.30;;;;;;2264259;61;20384;-66
2023/02/17 05:07:45;0.00;0.00;0.62;0.00;0.00;0.62;1.50;1.20;;;22.90;23.30;;;;;;2264420;61;20422;-66
2023/02/17 05:10:30;0.00;0.00;0.62;0.00;0.00;0.62;1.73;1.23;;;22.90;23.30;;;;;;2264008;61;20360;-66
2023/02/17 05:13:15;0.00;0.00;0.62;0.00;0.00;0.62;1.90;1.47;;;22.90;23.30;;;;;;2264401;61;20430;-66
2023/02/17 05:16:00;0.00;0.00;0.62;0.00;0.00;0.62;2.00;1.40;;;22.90;23.30;;;;;;2264341;61;20426;-66
2023/02/17 05:18:46;0.00;0.00;0.62;0.00;0.00;0.62;1.70;1.30;;;22.90;23.30;;;;;;2264463;61;20398;-65
2023/02/17 05:21:31;0.00;0.00;0.62;0.00;0.00;0.62;1.60;1.20;;;22.90;23.40;;;;;;2263900;61;20907;-65
2023/02/17 05:24:16;0.00;0.00;0.62;0.00;0.00;0.62;1.83;1.10;;;22.90;23.40;;;;;;2264393;61;20913;-68
2023/02/17 05:27:01;0.00;0.00;0.62;0.00;0.00;0.62;1.73;1.30;;;22.90;23.40;;;;;;2261511;61;20360;-68
2023/02/17 05:29:46;0.00;0.00;0.62;0.00;0.00;0.62;1.70;1.23;;;22.90;23.40;;;;;;2264111;61;20394;-71
2023/02/17 05:32:31;0.00;0.00;0.62;0.00;0.00;0.62;1.60;1.13;;;22.90;23.40;;;;;;2264450;61;20781;-66
2023/02/17 05:35:17;0.00;0.00;0.62;0.00;0.00;0.62;1.73;1.30;;;22.90;23.40;;;;;;2264486;61;20471;-66
2023/02/17 05:38:02;0.00;0.00;0.62;0.00;0.00;0.62;1.60;1.20;;;22.90;23.40;;;;;;2264623;61;20364;-66
2023/02/17 05:40:49;0.00;0.00;0.62;0.00;0.00;0.62;1.77;1.20;;;22.90;23.40;;;;;;2264568;61;20360;-67
2023/02/17 05:43:34;0.00;0.00;0.62;0.00;0.00;0.62;2.00;1.60;;;22.90;23.40;;;;;;2264781;61;20931;-71
2023/02/17 05:46:18;0.00;0.00;0.62;0.00;0.00;0.62;1.60;1.10;;;22.90;23.40;;;;;;2261419;61;20380;-66
2023/02/17 05:49:04;0.00;0.00;0.62;0.00;0.00;0.62;1.40;1.00;;;22.90;23.40;;;;;;2264994;61;20830;-72
2023/02/17 05:51:50;0.00;0.00;0.62;0.00;0.00;0.62;1.80;1.30;;;22.90;23.40;;;;;;2264767;61;20387;-66
2023/02/17 05:54:35;0.00;0.00;0.62;0.00;0.00;0.62;1.70;1.20;;;22.90;23.40;;;;;;2264502;61;20360;-69
2023/02/17 05:57:19;0.00;0.00;0.62;0.00;0.00;0.62;1.70;1.30;;;22.90;23.90;;;;;;2265477;61;20761;-68
2023/02/17 06:00:06;0.00;0.00;0.62;0.00;0.00;0.62;2.07;1.17;;;22.90;23.50;;;;;;2264550;61;20364;-69
2023/02/17 06:02:56;0.00;0.00;0.62;0.00;0.00;0.62;1.70;1.30;;;22.90;23.40;;;;;;2264923;61;20383;-67
2023/02/17 06:05:43;0.00;0.00;0.62;0.00;0.00;0.62;1.90;1.30;;;22.90;23.40;;;;;;2264490;61;20384;-67
2023/02/17 06:08:29;0.00;0.00;0.62;0.00;0.00;0.62;1.80;1.40;;;22.90;23.40;;;;;;2264405;61;20524;-70
2023/02/17 06:11:14;0.00;0.00;0.62;0.00;0.00;0.62;1.70;1.20;;;22.90;23.40;;;;;;2264305;61;20487;-67
2023/02/17 06:13:59;0.00;0.00;0.62;0.00;0.00;0.62;1.90;1.70;;;22.90;23.40;;;;;;2263931;61;20368;-67
2023/02/17 06:16:45;0.00;0.00;0.62;0.00;0.00;0.62;1.80;1.60;;;22.90;23.50;;;;;;2264101;61;20356;-67
2023/02/17 06:19:29;0.00;0.00;0.62;0.00;0.00;0.62;4.23;1.60;;;22.90;23.40;;;;;;2264030;61;20407;-68
2023/02/17 06:22:14;0.00;0.00;0.62;0.00;0.00;0.62;2.30;1.50;;;22.90;23.50;;;;;;2264170;61;20379;-67
2023/02/17 06:25:00;0.00;0.00;0.62;0.00;0.00;0.62;1.90;1.50;;;22.90;23.40;;;;;;2264015;61;20429;-67
2023/02/17 06:27:45;0.00;0.00;0.62;0.00;0.00;0.62;2.43;1.73;;;22.90;23.50;;;;;;2263982;61;20628;-67
2023/02/17 06:30:30;0.00;0.00;0.62;0.00;0.00;0.62;2.00;1.50;;;22.90;23.40;;;;;;2263866;61;20903;-69
2023/02/17 06:33:15;0.00;0.00;0.62;0.00;0.00;0.62;2.30;1.50;;;22.90;23.40;;;;;;2264700;61;20860;-66
2023/02/17 06:36:00;0.00;0.00;0.62;0.00;0.00;0.62;2.10;1.60;;;22.90;23.50;;;;;;2263844;61;20364;-67
2023/02/17 06:38:45;0.00;0.00;0.62;0.00;0.00;0.62;1.93;1.70;;;22.90;23.50;;;;;;2264093;61;20410;-67
2023/02/17 06:41:31;0.00;0.00;0.62;0.00;0.00;0.62;2.00;1.40;;;22.80;23.40;;;;;;2264241;61;20414;-69
2023/02/17 06:44:18;0.00;0.00;0.62;0.00;0.00;0.62;2.70;2.07;;;22.90;23.50;;;;;;2263847;61;20439;-66
2023/02/17 06:47:03;0.00;0.00;0.62;0.00;0.00;0.62;1.90;1.60;;;22.90;23.50;;;;;;2264280;61;20375;-69
2023/02/17 06:49:48;0.00;0.00;0.62;0.00;0.00;0.62;1.93;1.50;;;22.90;23.50;;;;;;2264040;61;20406;-66
2023/02/17 06:52:33;0.00;0.00;0.62;0.00;0.00;0.62;2.40;1.80;;;22.90;24.00;;;;;;2264162;61;20957;-65
2023/02/17 06:55:18;0.00;0.00;0.62;0.00;0.00;0.62;2.10;1.60;;;22.90;23.50;;;;;;2261218;61;20825;-66
2023/02/17 06:58:04;0.00;0.00;0.62;0.00;0.00;0.62;2.40;2.10;;;22.90;23.50;;;;;;2263872;61;20969;-66
2023/02/17 07:00:50;0.00;0.00;0.62;0.00;0.00;0.62;2.53;2.00;;;22.90;23.50;;;;;;2263640;61;20802;-66
2023/02/17 07:03:35;0.00;0.00;0.62;0.00;0.00;0.62;2.40;2.03;;;22.90;23.50;;;;;;2264282;61;20387;-68
2023/02/17 07:06:20;0.00;0.00;0.62;0.00;0.00;0.62;2.33;2.13;;;22.90;23.50;;;;;;2263917;61;20384;-66
2023/02/17 07:09:05;0.00;0.00;0.62;0.00;0.00;0.62;2.43;1.87;;;22.90;23.50;;;;;;2263880;61;20472;-68
2023/02/17 07:11:50;0.00;0.00;0.62;0.00;0.00;0.62;2.50;1.97;;;22.90;23.50;;;;;;2264182;61;20383;-67
2023/02/17 07:14:37;0.00;0.00;0.62;0.00;0.00;0.62;2.70;2.27;;;22.90;23.50;;;;;;2264335;61;20448;-66
2023/02/17 07:17:22;0.00;0.00;0.62;0.00;0.00;0.62;2.70;2.37;;;22.90;23.50;;;;;;2263999;61;20980;-66
2023/02/17 07:20:08;0.00;0.00;0.62;0.00;0.00;0.62;2.67;2.00;;;22.90;23.50;;;;;;2263403;61;20360;-66
2023/02/17 07:22:55;0.00;0.00;0.62;0.00;0.00;0.62;2.43;2.10;;;22.90;23.50;;;;;;2264130;61;20478;-66
2023/02/17 07:25:40;0.00;0.00;0.62;0.00;0.00;0.62;2.80;2.47;;;22.90;23.50;;;;;;2263925;61;20892;-67
2023/02/17 07:28:25;0.00;0.00;0.62;0.00;0.00;0.62;3.10;2.77;;;22.80;23.40;;;;;;2260687;61;20357;-67
2023/02/17 07:31:15;0.00;0.00;0.62;0.00;0.00;0.62;2.50;2.20;;;22.90;23.50;;;;;;2264019;61;20729;-66
2023/02/17 07:34:00;0.00;0.00;0.62;0.00;0.00;0.62;2.90;2.60;;;22.90;23.50;;;;;;2263870;61;20361;-67
2023/02/17 07:36:45;0.00;0.00;0.62;0.00;0.00;0.62;2.73;2.47;;;22.90;23.50;;;;;;2264243;61;20410;-67
2023/02/17 07:39:30;0.00;0.00;0.62;0.00;0.00;0.62;3.10;2.80;;;22.90;23.50;;;;;;2263557;61;20912;-65
2023/02/17 07:42:15;0.00;0.00;0.62;0.00;0.00;0.62;3.80;3.20;;;22.90;23.50;;;;;;2263535;61;20388;-66
2023/02/17 07:45:00;0.00;0.00;0.62;0.00;0.00;0.62;3.37;2.80;;;22.90;23.50;;;;;;2263923;61;20541;-65
2023/02/17 07:47:46;0.00;0.00;0.62;0.00;0.00;0.62;4.17;3.50;;;22.90;23.50;;;;;;2264630;61;20376;-67
2023/02/17 07:50:30;0.00;0.00;0.62;0.00;0.00;0.62;4.60;3.83;;;22.90;23.60;;;;;;2263515;61;20360;-66
2023/02/17 07:53:15;0.00;0.00;0.62;0.00;0.00;0.62;4.10;3.60;;;22.90;23.60;;;;;;2264060;61;21183;-67
2023/02/17 07:56:02;0.00;0.00;0.62;0.00;0.00;0.62;4.70;3.60;;;22.90;23.60;;;;;;2260777;61;20459;-66
2023/02/17 07:58:48;0.00;0.00;0.62;0.00;0.00;0.62;4.30;3.80;;;22.90;23.60;;;;;;2264293;61;20418;-67
2023/02/17 08:01:33;0.00;0.00;0.62;0.00;0.00;0.62;4.47;3.60;;;22.90;23.60;;;;;;2263979;61;20811;-67
2023/02/17 08:04:19;0.00;0.00;0.62;0.00;0.00;0.62;5.43;4.37;;;22.80;23.50;;;;;;2263728;61;20774;-66
2023/02/17 08:07:04;0.00;0.00;0.62;0.00;0.00;0.62;4.97;4.07;;;22.80;23.50;;;;;;2263855;61;20387;-66
2023/02/17 08:15:56;0.00;0.00;0.62;0.00;0.00;0.62;4.27;3.87;;;22.90;23.60;;;;;;2263962;61;20367;-67
2023/02/17 08:18:41;0.00;0.00;0.62;0.00;0.00;0.62;5.20;4.70;;;22.90;23.60;;;;;;2264040;61;20515;-66
2023/02/17 08:21:27;0.00;0.00;0.62;0.00;0.00;0.62;5.07;4.57;;;22.90;23.70;;;;;;2264231;61;20402;-66
2023/02/17 08:24:12;0.00;0.00;0.62;0.00;0.00;0.62;5.97;4.90;;;22.90;23.60;;;;;;2264215;61;20384;-66
2023/02/17 08:26:57;0.00;0.00;0.62;0.00;0.00;0.62;4.67;4.27;;;22.90;23.70;;;;;;2260667;61;20880;-66
2023/02/17 08:29:43;0.00;0.00;0.62;0.00;0.00;0.62;4.90;4.50;;;22.90;23.70;;;;;;2263852;61;20961;-67
2023/02/17 08:32:28;0.00;0.00;0.62;0.00;0.00;0.62;4.30;3.80;;;22.90;23.60;;;;;;2261076;61;20491;-67
2023/02/17 08:35:13;0.00;0.00;0.62;0.00;0.00;0.62;5.20;4.70;;;22.90;23.70;;;;;;2263887;61;20414;-66
2023/02/17 08:37:59;0.00;0.00;0.62;0.00;0.00;0.62;5.20;4.30;;;22.90;23.70;;;;;;2264037;61;20410;-66
2023/02/17 08:40:43;0.00;0.00;0.62;0.00;0.00;0.62;4.50;4.10;;;22.90;23.70;;;;;;2264542;61;20380;-66
2023/02/17 08:43:28;0.00;0.00;0.62;0.00;0.00;0.62;5.07;4.43;;;22.90;23.70;;;;;;2264770;61;20382;-66
2023/02/17 08:46:13;0.00;0.00;0.62;0.00;0.00;0.62;4.83;4.20;;;22.90;23.70;;;;;;2264659;61;20923;-66
2023/02/17 08:48:58;0.00;0.00;0.62;0.00;0.00;0.62;5.30;4.80;;;22.90;23.70;;;;;;2261096;61;20410;-66
2023/02/17 08:51:43;0.00;0.00;0.62;0.00;0.00;0.62;4.60;4.20;;;22.90;23.70;;;;;;2264612;61;20931;-66
2023/02/17 08:54:29;0.00;0.00;0.62;0.00;0.00;0.62;4.87;4.37;;;22.90;23.70;;;;;;2264703;61;20850;-66
2023/02/17 08:57:14;0.00;0.00;0.62;0.00;0.00;0.62;4.23;3.83;;;22.90;23.70;;;;;;2261249;61;20364;-66
2023/02/17 08:59:59;0.00;0.00;0.62;0.00;0.00;0.62;4.77;4.20;;;22.90;23.70;;;;;;2264303;61;20363;-67
2023/02/17 09:02:44;0.00;0.00;0.62;0.00;0.00;0.62;4.67;4.13;;;22.90;23.70;;;;;;2265142;61;20379;-65
2023/02/17 09:05:28;0.00;0.00;0.62;0.00;0.00;0.62;4.50;4.07;;;22.90;23.80;;;;;;2264679;61;20550;-67
2023/02/17 09:08:14;0.00;0.00;0.62;0.00;0.00;0.62;5.23;4.70;;;22.90;23.70;;;;;;2264744;61;20915;-67
2023/02/17 09:11:00;0.00;0.00;0.62;0.00;0.00;0.62;4.80;4.13;;;22.90;23.80;;;;;;2264100;61;20379;-66
2023/02/17 09:13:45;0.00;0.00;0.62;0.00;0.00;0.62;4.73;4.23;;;22.90;23.80;;;;;;2264674;61;20372;-66
2023/02/17 09:16:30;0.00;0.00;0.62;0.00;0.00;0.62;4.67;4.27;;;22.90;23.80;;;;;;2264892;61;20355;-66
2023/02/17 09:19:15;0.00;0.00;0.62;0.00;0.00;0.62;4.17;3.73;;;22.90;23.80;;;;;;2264142;61;20975;-66
2023/02/17 09:22:01;0.00;0.00;0.62;0.00;0.00;0.62;5.37;4.00;;;22.90;23.80;;;;;;2260265;61;20385;-65
2023/02/17 09:24:46;0.00;0.00;0.62;0.00;0.00;0.62;4.30;3.90;;;22.90;23.80;;;;;;2264432;61;20383;-65
2023/02/17 09:27:32;0.00;0.00;0.62;0.00;0.00;0.62;4.10;3.70;;;22.90;23.80;;;;;;2264681;61;20361;-67
2023/02/17 09:30:17;0.00;0.00;0.62;0.00;0.00;0.62;4.33;3.63;;;22.90;23.80;;;;;;2261188;61;20406;-67
2023/02/17 09:33:04;0.00;0.00;0.62;0.00;0.00;0.62;4.30;3.60;;;22.90;23.80;;;;;;2264244;61;20456;-67
2023/02/17 09:35:49;0.00;0.00;0.62;0.00;0.00;0.62;4.00;3.50;;;22.90;23.80;;;;;;2261096;61;20387;-66
2023/02/17 09:38:34;0.00;0.00;0.62;0.00;0.00;0.62;3.30;3.00;;;22.90;23.80;;;;;;2261783;61;20573;-66
2023/02/17 09:41:22;0.00;0.00;0.62;0.00;0.00;0.62;4.30;3.57;;;22.90;24.40;;;;;;2264242;61;20838;-66
2023/02/17 09:44:24;0.00;0.00;0.62;0.00;0.00;0.62;3.90;3.30;;;22.90;23.90;;;;;;2264677;61;20364;-66
2023/02/17 09:47:15;0.00;0.00;0.62;0.00;0.00;0.62;4.70;4.07;;;22.90;23.90;;;;;;2264662;61;20503;-66
2023/02/17 09:50:04;0.00;0.00;0.62;0.00;0.00;0.62;3.90;3.40;;;22.90;24.40;;;;;;2264625;61;20761;-66
2023/02/17 09:52:55;0.00;0.00;0.62;0.00;0.00;0.62;3.63;3.20;;;22.90;23.90;;;;;;2264507;61;20379;-67
2023/02/17 09:55:46;0.00;0.00;0.62;0.00;0.00;0.62;4.33;3.50;;;22.90;23.90;;;;;;2264477;61;20379;-66
2023/02/17 09:58:37;0.00;0.00;0.62;0.00;0.00;0.62;4.10;3.70;;;22.90;23.90;;;;;;2264734;61;20397;-68
2023/02/17 10:01:29;0.00;0.00;0.62;0.00;0.00;0.62;4.23;3.40;;;22.90;23.90;;;;;;2264638;61;20416;-67
2023/02/17 10:04:20;0.00;0.00;0.62;0.00;0.00;0.62;3.50;3.20;;;22.90;23.90;;;;;;2264505;61;20356;-66
2023/02/17 10:07:11;0.00;0.00;0.62;0.00;0.00;0.62;3.97;3.57;;;22.90;23.90;;;;;;2264470;61;20403;-66
2023/02/17 10:10:04;0.00;0.00;0.62;0.00;0.00;0.62;4.20;3.80;;;22.90;23.90;;;;;;2260885;61;20357;-66
2023/02/17 10:12:54;0.00;0.00;0.62;0.00;0.00;0.62;3.70;3.13;;;22.90;23.90;;;;;;2264552;61;20816;-66
2023/02/17 10:15:45;0.00;0.00;0.62;0.00;0.00;0.62;3.87;3.43;;;22.90;23.90;;;;;;2264784;61;20765;-66
2023/02/17 10:18:38;0.00;0.00;0.62;0.00;0.00;0.62;4.00;3.50;;;22.90;23.90;;;;;;2264264;61;20922;-66
2023/02/17 10:21:28;0.00;0.00;0.62;0.00;0.00;0.62;4.83;3.80;;;22.90;23.90;;;;;;2264240;61;20376;-68
2023/02/17 10:24:13;0.00;0.00;0.62;0.00;0.00;0.62;3.93;3.50;;;22.90;23.90;;;;;;2264663;61;20406;-66
2023/02/17 10:27:20;0.00;0.00;0.62;0.00;0.00;0.62;3.90;3.23;;;22.90;23.90;;;;;;2264548;61;20384;-65
2023/02/17 10:30:22;0.00;0.00;0.62;0.00;0.00;0.62;3.80;3.40;;;22.90;23.90;;;;;;2261512;61;20364;-66
2023/02/17 10:33:17;0.00;0.00;0.62;0.00;0.00;0.62;4.00;3.60;;;22.90;23.90;;;;;;2264435;61;20391;-66
2023/02/17 10:36:17;0.00;0.00;0.62;0.00;0.00;0.62;3.97;3.40;;;22.90;24.00;;;;;;2264472;61;20373;-66
2023/02/17 10:39:12;0.00;0.00;0.62;0.00;0.00;0.62;4.07;3.27;;;22.90;24.00;;;;;;2264243;61;20360;-65
2023/02/17 10:41:57;0.00;0.00;0.62;0.00;0.00;0.62;3.93;3.00;;;22.90;24.00;;;;;;2261316;61;20407;-66
2023/02/17 10:44:43;0.00;0.00;0.62;0.00;0.00;0.62;4.40;3.70;;;23.00;24.00;;;;;;2264650;61;20414;-66
2023/02/17 10:47:28;0.00;0.00;0.62;0.00;0.00;0.62;4.87;3.87;;;22.90;24.00;;;;;;2261038;61;20451;-66
2023/02/17 10:50:20;0.00;0.00;0.62;0.00;0.00;0.62;4.37;3.97;;;22.90;24.00;;;;;;2264070;61;20452;-66
2023/02/17 10:53:16;0.00;0.00;0.62;0.00;0.00;0.62;4.00;3.53;;;23.00;24.10;;;;;;2264732;61;20423;-66
2023/02/17 10:56:08;0.00;0.00;0.62;0.00;0.00;0.62;5.07;4.33;;;22.90;24.00;;;;;;2264135;61;20464;-66
2023/02/17 10:58:59;0.00;0.00;0.62;0.00;0.00;0.62;4.40;3.80;;;22.90;24.00;;;;;;2264205;61;20955;-66
2023/02/17 11:01:44;0.00;0.00;0.62;0.00;0.00;0.62;5.00;4.40;;;23.00;24.10;;;;;;2263993;61;20417;-66
2023/02/17 11:04:41;0.00;0.00;0.62;0.00;0.00;0.62;4.80;3.70;;;23.00;24.10;;;;;;2264578;61;20367;-66
2023/02/17 11:07:32;0.00;0.00;0.62;0.00;0.00;0.62;5.00;4.50;;;22.90;24.10;;;;;;2264829;61;20368;-66